Hovedside
METAR-TAF:

METAR-TAF

Lufthavner :

Rørvik, Norge

Rørvik lufthavn. Ryum

breddegrad: 64-50N, lengdegrad: 011-09E, høyde over havet: 4 m

Gjeldene værobservasjon

Denne rapporten ble laget for 10 minutter siden, klokken 08:20 UTC
Vind 2 kt fra skiftende retning
Temperatur -5°C
Luftfuktighet 93%
Trykk 1008 hPa
Sikt 10 km eller mer
Få skyer i en høyde av 2500 ft
Spredte skyer i en høyde av 20000 ft

METAR: ENRM 220820Z VRB02KT 9999 FEW025 SCT200 M05/M06 Q1008

Tid: 09:30 (08:30 UTC)

Varsel

Denne rapporten ble laget for 3 timer og 30 minutter siden, klokken 05:00 UTC
Varsel gyldig fra 22. klokken 05 UTC til 22. klokken 15 UTC
Vind 10 kt fra Øst-sørøst
Sikt 10 km eller mer
ingen skyer under 1500 m og ingen bygeskyer

TAF: ENRM 220500Z 2205/2215 12010KT CAVOK

Værobservasjoner og værvarsel for over 4000 flyplasser (METAR- og TAF-rapporter).

Tilgjengelige stasjoner er representert av de røde og gule prikkene på kartet.

Hold musepekeren over prikken for å se navnet på stasjonen.

Klikk så for å se værobservasjoner og -varsler.

For å forandre kartet kan du klikke på den grønne knappen med svart kryss for å zoome inn, på den grønne knappen med strek for å zoome ut, eller på de grønne pilene for å se tilstøtende kart.


METAR-TAF: